createdAt,value
2018-04-15T00:00:49.314Z,22.23
2018-04-15T00:01:49.379Z,22.25
2018-04-15T00:02:49.423Z,22.20
2018-04-15T00:03:49.558Z,22.22
2018-04-15T00:04:49.483Z,22.27
2018-04-15T00:05:49.534Z,22.27
2018-04-15T00:06:49.596Z,22.16
2018-04-15T00:07:49.637Z,22.25
2018-04-15T00:08:49.778Z,22.27
2018-04-15T00:09:49.730Z,22.28
2018-04-15T00:10:49.791Z,22.31
2018-04-15T00:11:50.024Z,22.35
2018-04-15T00:12:49.878Z,22.32
2018-04-15T00:13:49.910Z,22.27
2018-04-15T00:14:49.965Z,22.22
2018-04-15T00:15:50.043Z,22.20
2018-04-15T00:16:50.072Z,22.29
2018-04-15T00:17:50.124Z,22.16
2018-04-15T00:18:50.269Z,22.12
2018-04-15T00:19:50.206Z,22.16
2018-04-15T00:20:50.268Z,22.12
2018-04-15T00:21:50.287Z,22.19
2018-04-15T00:22:50.336Z,22.19
2018-04-15T00:23:50.514Z,22.19
2018-04-15T00:25:50.499Z,22.13
2018-04-15T00:26:50.631Z,22.13
2018-04-15T00:27:50.577Z,22.10
2018-04-15T00:28:50.651Z,22.16
2018-04-15T00:29:50.697Z,22.14
2018-04-15T00:30:50.732Z,22.19
2018-04-15T00:31:50.787Z,22.10
2018-04-15T00:32:50.819Z,22.19
2018-04-15T00:33:50.971Z,22.12
2018-04-15T00:34:50.918Z,22.14
2018-04-15T00:35:50.975Z,22.16
2018-04-15T00:36:51.018Z,22.20
2018-04-15T00:37:51.050Z,22.19
2018-04-15T00:38:51.204Z,22.14
2018-04-15T00:39:51.176Z,22.10
2018-04-15T00:40:51.208Z,22.13
2018-04-15T00:41:51.244Z,22.16
2018-04-15T00:42:51.299Z,22.10
2018-04-15T00:43:51.332Z,22.16
2018-04-15T00:44:51.383Z,22.16
2018-04-15T00:45:51.439Z,22.12
2018-04-15T00:47:51.511Z,22.16
2018-04-15T00:48:51.679Z,22.16
2018-04-15T00:49:51.612Z,22.19
2018-04-15T00:50:51.664Z,22.10
2018-04-15T00:51:51.725Z,22.12
2018-04-15T00:52:51.764Z,22.14
2018-04-15T00:53:51.926Z,22.12
2018-04-15T00:54:51.874Z,22.16
2018-04-15T00:55:51.894Z,22.12
2018-04-15T00:56:51.935Z,22.17
2018-04-15T00:57:52.026Z,22.17
2018-04-15T00:58:52.067Z,22.13
2018-04-15T00:59:52.092Z,22.14
2018-04-15T01:00:52.174Z,22.17
2018-04-15T01:01:52.183Z,22.17
2018-04-15T01:02:52.238Z,22.20
2018-04-15T01:03:52.411Z,22.17
2018-04-15T01:05:52.372Z,22.16
2018-04-15T01:06:52.433Z,22.17
2018-04-15T01:07:52.483Z,22.12
2018-04-15T01:08:52.610Z,22.13
2018-04-15T01:09:52.574Z,22.13
2018-04-15T01:10:52.622Z,22.16
2018-04-15T01:11:52.649Z,22.13
2018-04-15T01:12:52.701Z,22.12
2018-04-15T01:13:52.752Z,22.12
2018-04-15T01:14:52.810Z,22.13
2018-04-15T01:15:52.853Z,22.16
2018-04-15T01:17:52.932Z,22.01
2018-04-15T01:18:53.097Z,22.07
2018-04-15T01:19:53.050Z,22.01
2018-04-15T01:20:53.106Z,21.98
2018-04-15T01:22:53.179Z,21.95
2018-04-15T01:23:53.328Z,21.92
2018-04-15T01:24:53.284Z,21.97
2018-04-15T01:25:53.355Z,21.82
2018-04-15T01:26:53.369Z,21.82
2018-04-15T01:27:53.413Z,21.90
2018-04-15T01:28:53.461Z,21.85
2018-04-15T01:29:53.500Z,21.90
2018-04-15T01:30:53.568Z,21.82
2018-04-15T01:31:53.586Z,21.83
2018-04-15T01:33:53.826Z,21.91
2018-04-15T01:34:53.722Z,21.92
2018-04-15T01:35:53.794Z,21.98
2018-04-15T01:36:53.836Z,21.94
2018-04-15T01:37:53.891Z,21.91
2018-04-15T01:38:54.052Z,21.94
2018-04-15T01:39:53.966Z,22.01
2018-04-15T01:40:54.051Z,22.02
2018-04-15T01:41:54.094Z,21.99
2018-04-15T01:42:54.118Z,22.01
2018-04-15T01:43:54.163Z,22.12
2018-04-15T01:44:54.220Z,22.07
2018-04-15T01:45:54.291Z,22.19
2018-04-15T01:46:54.289Z,22.16
2018-04-15T01:47:54.346Z,22.10
2018-04-15T01:48:54.519Z,22.16
2018-04-15T01:49:54.440Z,22.14
2018-04-15T01:50:54.490Z,22.14
2018-04-15T01:51:54.524Z,22.09
2018-04-15T01:52:54.596Z,22.09
2018-04-15T01:53:54.657Z,22.12
2018-04-15T01:54:54.685Z,22.12
2018-04-15T01:55:54.744Z,22.17
2018-04-15T01:56:54.787Z,22.12
2018-04-15T01:57:54.814Z,22.13
2018-04-15T01:58:55.194Z,22.14
2018-04-15T01:59:54.905Z,22.14
2018-04-15T02:00:54.956Z,22.14
2018-04-15T02:01:55.023Z,22.16
2018-04-15T02:02:55.100Z,22.12
2018-04-15T02:03:55.306Z,22.19
2018-04-15T02:04:55.163Z,22.17
2018-04-15T02:05:55.218Z,22.12
2018-04-15T02:06:55.258Z,22.20
2018-04-15T02:07:55.292Z,22.13
2018-04-15T02:08:55.452Z,22.17
2018-04-15T02:10:55.433Z,22.17
2018-04-15T02:11:55.531Z,22.14
2018-04-15T02:12:55.598Z,22.06
2018-04-15T02:13:55.724Z,22.06
2018-04-15T02:14:55.707Z,22.10
2018-04-15T02:15:55.722Z,22.10
2018-04-15T02:16:55.738Z,22.19
2018-04-15T02:17:55.754Z,22.10
2018-04-15T02:18:55.983Z,22.09
2018-04-15T02:19:55.861Z,22.12
2018-04-15T02:20:56.007Z,22.16
2018-04-15T02:21:56.019Z,22.14
2018-04-15T02:22:56.062Z,22.16
2018-04-15T02:23:56.099Z,22.14
2018-04-15T02:24:56.103Z,22.17
2018-04-15T02:25:56.161Z,22.13
2018-04-15T02:26:56.264Z,22.13
2018-04-15T02:27:56.263Z,22.14
2018-04-15T02:28:56.389Z,22.14
2018-04-15T02:29:56.342Z,22.12
2018-04-15T02:30:56.380Z,22.17
2018-04-15T02:31:56.432Z,22.14
2018-04-15T02:32:56.500Z,22.14
2018-04-15T02:33:56.626Z,22.16
2018-04-15T02:34:56.574Z,22.16
2018-04-15T02:35:56.651Z,22.13
2018-04-15T02:36:56.644Z,22.17
2018-04-15T02:37:56.707Z,22.19
2018-04-15T02:38:56.773Z,22.10
2018-04-15T02:39:56.792Z,22.13
2018-04-15T02:40:56.876Z,22.13
2018-04-15T02:41:56.912Z,22.20
2018-04-15T02:42:56.936Z,22.09
2018-04-15T02:43:57.089Z,22.13
2018-04-15T02:44:57.039Z,22.12
2018-04-15T02:45:57.086Z,22.09
2018-04-15T02:46:57.177Z,21.98
2018-04-15T02:47:57.193Z,22.02
2018-04-15T02:48:57.322Z,22.12
2018-04-15T02:49:57.319Z,21.91
2018-04-15T02:50:57.316Z,21.97
2018-04-15T02:51:57.368Z,21.92
2018-04-15T02:52:57.415Z,21.83
2018-04-15T02:53:57.470Z,21.91
2018-04-15T02:54:57.524Z,21.90
2018-04-15T02:55:57.581Z,21.85
2018-04-15T02:56:57.621Z,21.82
2018-04-15T02:57:57.687Z,21.79
2018-04-15T02:58:57.786Z,21.81
2018-04-15T02:59:57.765Z,21.81
2018-04-15T03:00:57.779Z,21.79
2018-04-15T03:01:57.831Z,21.81
2018-04-15T03:03:58.235Z,21.82
2018-04-15T03:04:57.997Z,21.78
2018-04-15T03:05:58.031Z,21.82
2018-04-15T03:06:58.096Z,21.88
2018-04-15T03:07:58.122Z,21.82
2018-04-15T03:08:58.171Z,21.94
2018-04-15T03:09:58.234Z,21.97
2018-04-15T03:10:58.471Z,21.92
2018-04-15T03:11:58.308Z,21.94
2018-04-15T03:12:58.374Z,21.97
2018-04-15T03:13:58.514Z,21.98
2018-04-15T03:14:58.446Z,21.92
2018-04-15T03:15:58.492Z,21.94
2018-04-15T03:16:58.567Z,21.91
2018-04-15T03:17:58.582Z,21.97
2018-04-15T03:18:58.794Z,21.98
2018-04-15T03:19:58.702Z,22.04
2018-04-15T03:20:58.723Z,21.92
2018-04-15T03:21:58.778Z,22.02
2018-04-15T03:22:58.845Z,22.04
2018-04-15T03:23:58.900Z,22.01
2018-04-15T03:24:58.959Z,22.04
2018-04-15T03:25:58.990Z,22.04
2018-04-15T03:26:59.011Z,22.06
2018-04-15T03:27:59.075Z,21.95
2018-04-15T03:29:00.433Z,21.88
2018-04-15T03:29:59.187Z,21.78
2018-04-15T03:30:59.213Z,21.82
2018-04-15T03:31:59.985Z,21.67
2018-04-15T03:32:59.313Z,21.67
2018-04-15T03:33:59.445Z,21.67
2018-04-15T03:34:59.397Z,21.64
2018-04-15T03:35:59.457Z,21.57
2018-04-15T03:36:59.493Z,21.54
2018-04-15T03:37:59.540Z,21.61
2018-04-15T03:38:59.568Z,21.59
2018-04-15T03:39:59.618Z,21.51
2018-04-15T03:40:59.677Z,21.54
2018-04-15T03:42:59.760Z,21.51
2018-04-15T03:43:59.905Z,21.48
2018-04-15T03:44:59.869Z,21.60
2018-04-15T03:45:59.911Z,21.56
2018-04-15T03:46:59.959Z,21.60
2018-04-15T03:48:00.028Z,21.60
2018-04-15T03:49:00.121Z,21.60
2018-04-15T03:50:00.075Z,21.57
2018-04-15T03:51:00.143Z,21.61
2018-04-15T03:52:00.162Z,21.54
2018-04-15T03:53:00.239Z,21.56
2018-04-15T03:54:00.279Z,21.56
2018-04-15T03:55:00.349Z,21.56
2018-04-15T03:56:00.375Z,21.60
2018-04-15T03:57:00.398Z,21.53
2018-04-15T03:58:00.452Z,21.59
2018-04-15T03:59:00.630Z,21.61
2018-04-15T04:00:00.557Z,21.57
2018-04-15T04:01:00.611Z,21.61
2018-04-15T04:02:00.657Z,21.56
2018-04-15T04:03:00.701Z,21.53
2018-04-15T04:04:00.871Z,21.57
2018-04-15T04:05:00.776Z,21.63
2018-04-15T04:06:00.838Z,21.61
2018-04-15T04:07:00.903Z,21.63
2018-04-15T04:08:00.923Z,21.60
2018-04-15T04:09:01.005Z,21.66
2018-04-15T04:10:01.022Z,21.64
2018-04-15T04:11:01.060Z,21.64
2018-04-15T04:12:01.134Z,21.69
2018-04-15T04:13:01.157Z,21.69
2018-04-15T04:14:01.328Z,21.60
2018-04-15T04:15:01.269Z,21.69
2018-04-15T04:16:01.293Z,21.74
2018-04-15T04:17:01.344Z,21.67
2018-04-15T04:18:01.391Z,21.64
2018-04-15T04:19:01.589Z,21.67
2018-04-15T04:20:01.508Z,21.69
2018-04-15T04:21:01.558Z,21.61
2018-04-15T04:22:01.595Z,21.61
2018-04-15T04:23:01.648Z,21.57
2018-04-15T04:24:01.675Z,21.50
2018-04-15T04:25:01.719Z,21.48
2018-04-15T04:26:01.791Z,21.35
2018-04-15T04:27:02.374Z,21.38
2018-04-15T04:28:01.866Z,21.32
2018-04-15T04:29:02.030Z,21.36
2018-04-15T04:30:01.964Z,21.23
2018-04-15T04:31:01.998Z,21.36
2018-04-15T04:32:02.030Z,21.36
2018-04-15T04:33:02.087Z,21.29
2018-04-15T04:34:02.249Z,21.36
2018-04-15T04:35:02.172Z,21.32
2018-04-15T04:36:02.237Z,21.34
2018-04-15T04:37:02.298Z,21.27
2018-04-15T04:38:02.329Z,21.24
2018-04-15T04:39:02.376Z,21.32
2018-04-15T04:40:02.443Z,21.26
2018-04-15T04:41:02.474Z,21.26
2018-04-15T04:42:02.537Z,21.27
2018-04-15T04:43:02.555Z,21.29
2018-04-15T04:44:02.734Z,21.29
2018-04-15T04:45:02.677Z,21.16
2018-04-15T04:46:02.701Z,21.20
2018-04-15T04:47:02.777Z,21.17
2018-04-15T04:48:02.792Z,21.19
2018-04-15T04:49:02.941Z,21.17
2018-04-15T04:50:02.891Z,21.14
2018-04-15T04:51:02.933Z,21.06
2018-04-15T04:52:02.964Z,21.16
2018-04-15T04:53:03.026Z,21.11
2018-04-15T04:54:03.093Z,21.08
2018-04-15T04:55:03.341Z,21.17
2018-04-15T04:56:03.184Z,21.04
2018-04-15T04:57:03.211Z,21.17
2018-04-15T04:58:03.252Z,21.09
2018-04-15T04:59:03.393Z,21.09
2018-04-15T05:00:03.597Z,21.16
2018-04-15T05:01:03.401Z,21.06
2018-04-15T05:02:03.431Z,21.05
2018-04-15T05:03:03.488Z,21.14
2018-04-15T05:04:03.651Z,21.13
2018-04-15T05:05:03.596Z,21.11
2018-04-15T05:06:03.634Z,21.13
2018-04-15T05:07:03.667Z,21.13
2018-04-15T05:08:03.713Z,21.14
2018-04-15T05:09:03.962Z,21.05
2018-04-15T05:10:03.799Z,21.13
2018-04-15T05:11:03.850Z,21.16
2018-04-15T05:12:03.899Z,21.05
2018-04-15T05:13:04.489Z,21.05
2018-04-15T05:14:04.091Z,21.08
2018-04-15T05:15:04.059Z,21.16
2018-04-15T05:16:04.092Z,21.13
2018-04-15T05:17:04.151Z,21.02
2018-04-15T05:18:04.188Z,21.19
2018-04-15T05:19:04.311Z,21.04
2018-04-15T05:20:04.283Z,21.09
2018-04-15T05:21:04.362Z,21.14
2018-04-15T05:22:04.366Z,21.05
2018-04-15T05:23:04.422Z,21.11
2018-04-15T05:24:04.467Z,21.02
2018-04-15T05:25:04.501Z,21.11
2018-04-15T05:26:04.559Z,20.99
2018-04-15T05:27:04.832Z,21.11
2018-04-15T05:28:04.646Z,21.11
2018-04-15T05:29:04.817Z,21.04
2018-04-15T05:30:04.756Z,21.14
2018-04-15T05:31:04.767Z,21.05
2018-04-15T05:32:04.825Z,21.13
2018-04-15T05:33:04.865Z,21.06
2018-04-15T05:34:05.005Z,21.08
2018-04-15T05:35:04.964Z,21.19
2018-04-15T05:36:04.990Z,21.04
2018-04-15T05:37:05.045Z,21.17
2018-04-15T05:38:05.134Z,21.17
2018-04-15T05:39:05.137Z,21.05
2018-04-15T05:40:05.208Z,21.08
2018-04-15T05:41:05.235Z,21.09
2018-04-15T05:42:05.298Z,21.23
2018-04-15T05:43:05.360Z,21.06
2018-04-15T05:44:05.493Z,21.08
2018-04-15T05:45:05.463Z,21.13
2018-04-15T05:46:05.497Z,21.06
2018-04-15T05:47:05.539Z,21.09
2018-04-15T05:48:05.776Z,21.13
2018-04-15T05:49:05.628Z,21.16
2018-04-15T05:50:05.647Z,21.11
2018-04-15T05:51:05.725Z,21.06
2018-04-15T05:52:05.744Z,21.13
2018-04-15T05:53:05.809Z,21.11
2018-04-15T05:54:05.951Z,21.08
2018-04-15T05:55:05.892Z,21.04
2018-04-15T05:56:05.927Z,21.09
2018-04-15T05:57:05.996Z,21.05
2018-04-15T05:58:06.057Z,21.05
2018-04-15T05:59:06.105Z,21.06
2018-04-15T06:00:06.107Z,21.14
2018-04-15T06:01:06.162Z,21.06
2018-04-15T06:02:06.202Z,21.08
2018-04-15T06:03:06.296Z,21.08
2018-04-15T06:04:06.415Z,21.09
2018-04-15T06:05:06.349Z,20.96
2018-04-15T06:06:06.615Z,21.01
2018-04-15T06:07:06.455Z,20.93
2018-04-15T06:08:06.491Z,20.95
2018-04-15T06:09:06.647Z,20.96
2018-04-15T06:10:06.611Z,20.86
2018-04-15T06:11:06.637Z,20.93
2018-04-15T06:12:06.680Z,20.86
2018-04-15T06:13:06.709Z,20.79
2018-04-15T06:14:06.782Z,20.83
2018-04-15T06:15:07.022Z,20.84
2018-04-15T06:16:06.868Z,20.81
2018-04-15T06:17:06.934Z,20.89
2018-04-15T06:18:06.953Z,20.83
2018-04-15T06:19:07.181Z,20.80
2018-04-15T06:20:07.073Z,20.76
2018-04-15T06:21:07.112Z,20.79
2018-04-15T06:22:07.167Z,20.72
2018-04-15T06:23:07.200Z,20.80
2018-04-15T06:24:07.317Z,20.79
2018-04-15T06:25:07.281Z,20.72
2018-04-15T06:26:07.316Z,20.72
2018-04-15T06:27:07.362Z,20.74
2018-04-15T06:29:07.507Z,20.72
2018-04-15T06:31:07.551Z,20.79
2018-04-15T06:32:07.804Z,20.71
2018-04-15T06:33:07.642Z,20.76
2018-04-15T06:34:07.773Z,20.72
2018-04-15T06:35:07.956Z,20.74
2018-04-15T06:36:07.813Z,20.81
2018-04-15T06:37:07.822Z,20.81
2018-04-15T06:38:07.886Z,20.83
2018-04-15T06:39:08.542Z,20.79
2018-04-15T06:40:07.958Z,20.87
2018-04-15T06:41:07.999Z,20.84
2018-04-15T06:42:08.056Z,20.81
2018-04-15T06:43:08.133Z,20.79
2018-04-15T06:44:08.161Z,20.80
2018-04-15T06:45:08.181Z,20.79
2018-04-15T06:46:08.259Z,20.83
2018-04-15T06:47:08.309Z,20.83
2018-04-15T06:48:08.338Z,20.83
2018-04-15T06:49:08.656Z,20.81
2018-04-15T06:50:08.481Z,20.84
2018-04-15T06:51:08.548Z,20.84
2018-04-15T06:52:08.512Z,20.81
2018-04-15T06:53:08.562Z,20.80
2018-04-15T06:54:09.252Z,20.81
2018-04-15T06:55:08.661Z,20.81
2018-04-15T06:56:08.702Z,20.79
2018-04-15T06:57:08.738Z,20.89
2018-04-15T06:58:08.795Z,20.81
2018-04-15T06:59:08.855Z,20.81
2018-04-15T07:00:08.901Z,20.86
2018-04-15T07:01:09.145Z,20.84
2018-04-15T07:02:08.979Z,20.79
2018-04-15T07:03:09.036Z,20.79
2018-04-15T07:04:09.182Z,20.80
2018-04-15T07:05:09.116Z,20.84
2018-04-15T07:06:09.169Z,20.79
2018-04-15T07:07:09.208Z,20.86
2018-04-15T07:08:09.249Z,20.72
2018-04-15T07:09:09.402Z,20.77
2018-04-15T07:10:09.360Z,20.72
2018-04-15T07:11:09.390Z,20.71
2018-04-15T07:12:09.457Z,20.56
2018-04-15T07:13:09.494Z,20.49
2018-04-15T07:14:09.564Z,20.42
2018-04-15T07:15:09.567Z,20.41
2018-04-15T07:16:09.667Z,20.39
2018-04-15T07:17:09.682Z,20.31
2018-04-15T07:18:09.721Z,20.27
2018-04-15T07:19:09.870Z,20.25
2018-04-15T07:20:09.803Z,20.23
2018-04-15T07:21:09.855Z,20.12
2018-04-15T07:22:09.894Z,20.10
2018-04-15T07:23:09.952Z,20.10
2018-04-15T07:24:10.099Z,20.02
2018-04-15T07:25:10.046Z,19.98
2018-04-15T07:26:10.142Z,20.09
2018-04-15T07:27:10.136Z,19.93
2018-04-15T07:28:10.388Z,19.90
2018-04-15T07:29:10.207Z,19.93
2018-04-15T07:30:10.791Z,19.91
2018-04-15T07:31:10.323Z,19.83
2018-04-15T07:32:10.363Z,19.98
2018-04-15T07:34:10.542Z,19.93
2018-04-15T07:35:10.507Z,19.95
2018-04-15T07:36:10.531Z,19.91
2018-04-15T07:37:10.595Z,19.94
2018-04-15T07:38:10.654Z,19.91
2018-04-15T07:39:10.792Z,19.90
2018-04-15T07:40:10.724Z,19.83
2018-04-15T07:41:10.774Z,19.88
2018-04-15T07:42:10.811Z,19.83
2018-04-15T07:43:10.864Z,19.87
2018-04-15T07:44:10.911Z,19.78
2018-04-15T07:45:10.940Z,19.75
2018-04-15T07:46:10.986Z,19.72
2018-04-15T07:47:11.046Z,19.66
2018-04-15T07:48:11.108Z,19.73
2018-04-15T07:49:11.228Z,19.70
2018-04-15T07:50:11.161Z,19.66
2018-04-15T07:51:11.229Z,19.73
2018-04-15T07:52:11.250Z,19.66
2018-04-15T07:53:11.315Z,19.63
2018-04-15T07:54:11.440Z,19.65
2018-04-15T07:55:11.399Z,19.61
2018-04-15T07:56:11.501Z,19.63
2018-04-15T07:57:11.487Z,19.61
2018-04-15T07:58:11.536Z,19.63
2018-04-15T07:59:11.607Z,19.61
2018-04-15T08:00:11.632Z,19.72
2018-04-15T08:01:11.694Z,19.73
2018-04-15T08:02:11.729Z,19.68
2018-04-15T08:03:11.748Z,19.68
2018-04-15T08:04:11.915Z,19.70
2018-04-15T08:05:11.850Z,19.60
2018-04-15T08:06:11.912Z,19.55
2018-04-15T08:07:11.936Z,19.60
2018-04-15T08:08:11.969Z,19.58
2018-04-15T08:09:12.341Z,19.58
2018-04-15T08:10:12.084Z,19.53
2018-04-15T08:11:12.110Z,19.51
2018-04-15T08:12:12.374Z,19.58
2018-04-15T08:13:12.223Z,19.58
2018-04-15T08:14:12.792Z,19.65
2018-04-15T08:15:12.296Z,19.42
2018-04-15T08:16:12.342Z,19.47
2018-04-15T08:17:12.439Z,19.48
2018-04-15T08:18:12.422Z,19.48
2018-04-15T08:19:12.576Z,19.40
2018-04-15T08:20:12.522Z,19.40
2018-04-15T08:21:12.610Z,19.43
2018-04-15T08:22:12.630Z,19.43
2018-04-15T08:23:12.665Z,19.36
2018-04-15T08:24:12.819Z,19.47
2018-04-15T08:25:12.768Z,19.36
2018-04-15T08:26:12.803Z,19.31
2018-04-15T08:27:12.837Z,19.46
2018-04-15T08:28:12.920Z,19.32
2018-04-15T08:29:12.919Z,19.42
2018-04-15T08:30:12.998Z,19.33
2018-04-15T08:31:13.068Z,19.32
2018-04-15T08:32:13.053Z,19.29
2018-04-15T08:33:13.139Z,19.33
2018-04-15T08:34:13.279Z,19.35
2018-04-15T08:35:13.232Z,19.28
2018-04-15T08:36:13.250Z,19.25
2018-04-15T08:37:13.297Z,19.29
2018-04-15T08:38:13.346Z,19.25
2018-04-15T08:39:13.480Z,19.23
2018-04-15T08:40:13.422Z,19.23
2018-04-15T08:41:13.469Z,19.25
2018-04-15T08:42:13.515Z,19.28
2018-04-15T08:43:13.607Z,19.18
2018-04-15T08:44:13.602Z,19.17
2018-04-15T08:45:13.672Z,19.17
2018-04-15T08:46:13.713Z,19.20
2018-04-15T08:47:13.737Z,19.11
2018-04-15T08:48:13.781Z,19.14
2018-04-15T08:49:13.931Z,19.17
2018-04-15T08:50:13.879Z,19.21
2018-04-15T08:51:13.929Z,19.14
2018-04-15T08:52:13.980Z,19.15
2018-04-15T08:53:13.991Z,19.14
2018-04-15T08:54:14.162Z,19.18
2018-04-15T08:55:14.090Z,19.05
2018-04-15T08:56:14.161Z,19.10
2018-04-15T08:57:14.180Z,19.14
2018-04-15T08:58:14.222Z,19.17
2018-04-15T08:59:14.284Z,19.13
2018-04-15T09:00:14.313Z,19.14
2018-04-15T09:01:14.355Z,19.18
2018-04-15T09:02:14.410Z,19.14
2018-04-15T09:03:14.447Z,19.18
2018-04-15T09:04:14.604Z,19.06
2018-04-15T09:05:14.555Z,19.05
2018-04-15T09:06:14.568Z,19.14
2018-04-15T09:07:14.645Z,19.08
2018-04-15T09:08:14.667Z,19.18
2018-04-15T09:09:14.826Z,19.11
2018-04-15T09:11:14.824Z,19.18
2018-04-15T09:12:14.863Z,19.17
2018-04-15T09:13:14.881Z,19.17
2018-04-15T09:14:15.482Z,19.13
2018-04-15T09:15:15.021Z,19.23
2018-04-15T09:16:15.042Z,19.24
2018-04-15T09:17:15.115Z,19.18
2018-04-15T09:18:15.210Z,19.21
2018-04-15T09:19:15.283Z,19.14
2018-04-15T09:20:15.228Z,19.11
2018-04-15T09:21:15.265Z,19.20
2018-04-15T09:22:15.298Z,19.15
2018-04-15T09:23:15.401Z,19.21
2018-04-15T09:24:15.516Z,19.15
2018-04-15T09:25:15.446Z,19.14
2018-04-15T09:26:15.520Z,19.14
2018-04-15T09:27:15.524Z,19.14
2018-04-15T09:28:15.579Z,19.14
2018-04-15T09:29:15.613Z,19.17
2018-04-15T09:30:15.652Z,19.21
2018-04-15T09:31:15.733Z,19.11
2018-04-15T09:32:15.767Z,19.15
2018-04-15T09:33:15.824Z,19.18
2018-04-15T09:34:15.968Z,19.17
2018-04-15T09:35:15.904Z,19.17
2018-04-15T09:36:15.960Z,19.29
2018-04-15T09:37:16.003Z,19.25
2018-04-15T09:38:16.044Z,19.24
2018-04-15T09:39:16.188Z,19.31
2018-04-15T09:40:16.120Z,19.31
2018-04-15T09:41:16.676Z,19.36
2018-04-15T09:43:16.253Z,19.28
2018-04-15T09:44:16.294Z,19.36
2018-04-15T09:45:16.333Z,19.33
2018-04-15T09:46:16.393Z,19.29
2018-04-15T09:47:16.443Z,19.33
2018-04-15T09:48:16.466Z,19.43
2018-04-15T09:49:16.646Z,19.40
2018-04-15T09:50:16.763Z,19.31
2018-04-15T09:51:16.623Z,19.39
2018-04-15T09:52:16.650Z,19.43
2018-04-15T09:53:16.705Z,19.46
2018-04-15T09:54:16.883Z,19.42
2018-04-15T09:55:16.991Z,19.42
2018-04-15T09:56:16.846Z,19.46
2018-04-15T09:57:16.900Z,19.46
2018-04-15T10:00:17.003Z,19.46
2018-04-15T10:01:17.060Z,19.46
2018-04-15T10:02:17.132Z,19.58
2018-04-15T10:03:17.168Z,19.54
2018-04-15T10:04:17.287Z,19.55
2018-04-15T10:05:17.270Z,19.42
2018-04-15T10:06:17.289Z,19.42
2018-04-15T10:07:17.322Z,19.43
2018-04-15T10:08:17.400Z,19.53
2018-04-15T10:09:17.513Z,19.40
2018-04-15T10:10:17.481Z,19.50
2018-04-15T10:11:17.506Z,19.43
2018-04-15T10:12:17.587Z,19.54
2018-04-15T10:13:17.609Z,19.42
2018-04-15T10:14:17.647Z,19.58
2018-04-15T10:15:17.712Z,19.57
2018-04-15T10:16:17.742Z,19.65
2018-04-15T10:17:17.800Z,19.61
2018-04-15T10:19:17.987Z,19.61
2018-04-15T10:20:17.940Z,19.60
2018-04-15T10:21:18.202Z,19.58
2018-04-15T10:22:18.025Z,19.68
2018-04-15T10:23:18.065Z,19.68
2018-04-15T10:24:18.224Z,19.72
2018-04-15T10:25:18.172Z,19.69
2018-04-15T10:26:18.204Z,19.83
2018-04-15T10:27:18.263Z,19.78
2018-04-15T10:28:18.300Z,19.72
2018-04-15T10:29:18.547Z,19.79
2018-04-15T10:30:18.386Z,19.79
2018-04-15T10:31:18.629Z,19.86
2018-04-15T10:32:18.463Z,19.76
2018-04-15T10:33:18.537Z,19.78
2018-04-15T10:34:18.665Z,19.95
2018-04-15T10:35:18.639Z,19.95
2018-04-15T10:36:18.665Z,20.03
2018-04-15T10:37:18.701Z,20.06
2018-04-15T10:38:18.747Z,20.03
2018-04-15T10:39:18.911Z,19.98
2018-04-15T10:40:18.877Z,20.02
2018-04-15T10:41:18.914Z,20.05
2018-04-15T10:42:18.936Z,20.02
2018-04-15T10:43:18.989Z,20.03
2018-04-15T10:44:19.063Z,20.03
2018-04-15T10:45:19.104Z,19.97
2018-04-15T10:46:19.133Z,20.12
2018-04-15T10:47:19.183Z,20.00
2018-04-15T10:48:19.206Z,20.10
2018-04-15T10:49:19.386Z,20.00
2018-04-15T10:50:19.323Z,20.00
2018-04-15T10:51:19.921Z,19.94
2018-04-15T10:52:19.411Z,20.06
2018-04-15T10:53:19.450Z,20.03
2018-04-15T10:54:19.636Z,20.05
2018-04-15T10:55:19.547Z,19.93
2018-04-15T10:56:19.616Z,19.95
2018-04-15T10:57:19.637Z,19.94
2018-04-15T10:58:19.684Z,20.02
2018-04-15T10:59:19.731Z,20.08
2018-04-15T11:00:19.783Z,20.10
2018-04-15T11:01:19.823Z,19.98
2018-04-15T11:02:19.872Z,19.93
2018-04-15T11:03:19.924Z,20.02
2018-04-15T11:04:20.059Z,19.97
2018-04-15T11:05:20.023Z,19.98
2018-04-15T11:06:20.054Z,19.87
2018-04-15T11:07:20.116Z,19.91
2018-04-15T11:08:20.154Z,19.90
2018-04-15T11:09:20.284Z,19.91
2018-04-15T11:10:20.237Z,19.94
2018-04-15T11:11:20.311Z,19.97
2018-04-15T11:12:20.328Z,19.97
2018-04-15T11:13:20.387Z,19.88
2018-04-15T11:14:20.455Z,19.94
2018-04-15T11:15:20.472Z,20.02
2018-04-15T11:16:20.528Z,20.00
2018-04-15T11:17:20.556Z,20.16
2018-04-15T11:18:20.631Z,20.09
2018-04-15T11:19:21.279Z,20.10
2018-04-15T11:20:20.712Z,20.24
2018-04-15T11:21:20.755Z,20.24
2018-04-15T11:22:20.833Z,20.15
2018-04-15T11:23:20.854Z,20.15
2018-04-15T11:24:20.995Z,20.15
2018-04-15T11:25:20.937Z,20.15
2018-04-15T11:26:20.983Z,20.13
2018-04-15T11:27:21.038Z,20.09
2018-04-15T11:28:21.123Z,20.20
2018-04-15T11:29:21.142Z,20.12
2018-04-15T11:30:21.207Z,20.31
2018-04-15T11:31:21.229Z,20.21
2018-04-15T11:32:21.263Z,20.24
2018-04-15T11:33:21.355Z,20.31
2018-04-15T11:34:21.492Z,20.38
2018-04-15T11:35:21.421Z,20.31
2018-04-15T11:36:21.452Z,20.34
2018-04-15T11:37:21.502Z,20.33
2018-04-15T11:38:21.589Z,20.42
2018-04-15T11:39:21.707Z,20.31
2018-04-15T11:40:21.646Z,20.39
2018-04-15T11:41:21.694Z,20.41
2018-04-15T11:42:21.733Z,20.49
2018-04-15T11:43:21.793Z,20.49
2018-04-15T11:44:21.867Z,20.50
2018-04-15T11:45:21.894Z,20.56
2018-04-15T11:46:21.917Z,20.66
2018-04-15T11:47:21.994Z,20.66
2018-04-15T11:48:22.018Z,20.69
2018-04-15T11:49:22.185Z,20.62
2018-04-15T11:50:22.096Z,20.66
2018-04-15T11:51:22.144Z,20.68
2018-04-15T11:52:22.215Z,20.65
2018-04-15T11:53:22.253Z,20.84
2018-04-15T11:54:22.309Z,20.89
2018-04-15T11:55:22.350Z,20.95
2018-04-15T11:56:22.395Z,20.93
2018-04-15T11:57:22.421Z,20.91
2018-04-15T11:58:22.497Z,21.01
2018-04-15T11:59:22.620Z,20.93
2018-04-15T12:00:22.573Z,20.98
2018-04-15T12:01:22.610Z,20.90
2018-04-15T12:02:22.709Z,20.95
2018-04-15T12:03:22.732Z,20.90
2018-04-15T12:04:22.775Z,20.90
2018-04-15T12:05:22.815Z,20.93
2018-04-15T12:06:22.857Z,20.83
2018-04-15T12:07:22.935Z,20.77
2018-04-15T12:08:22.954Z,20.76
2018-04-15T12:09:23.123Z,20.79
2018-04-15T12:10:23.064Z,20.81
2018-04-15T12:11:23.103Z,20.83
2018-04-15T12:12:23.177Z,20.80
2018-04-15T12:14:23.366Z,20.86
2018-04-15T12:15:23.316Z,20.79
2018-04-15T12:16:23.322Z,20.91
2018-04-15T12:17:23.375Z,20.96
2018-04-15T12:18:23.454Z,20.96
2018-04-15T12:19:23.507Z,21.05
2018-04-15T12:20:23.556Z,21.06
2018-04-15T12:21:23.589Z,21.05
2018-04-15T12:22:23.625Z,21.11
2018-04-15T12:23:23.679Z,21.04
2018-04-15T12:24:23.825Z,21.06
2018-04-15T12:25:23.772Z,21.05
2018-04-15T12:26:23.820Z,21.16
2018-04-15T12:27:23.838Z,21.09
2018-04-15T12:28:23.902Z,21.14
2018-04-15T12:29:24.044Z,21.11
2018-04-15T12:30:24.009Z,21.13
2018-04-15T12:31:24.050Z,21.14
2018-04-15T12:32:24.087Z,21.14
2018-04-15T12:33:24.173Z,21.08
2018-04-15T12:34:24.186Z,20.98
2018-04-15T12:35:24.231Z,20.90
2018-04-15T12:36:24.319Z,20.93
2018-04-15T12:37:24.345Z,20.84
2018-04-15T12:38:24.415Z,20.79
2018-04-15T12:39:24.521Z,20.86
2018-04-15T12:40:24.486Z,20.69
2018-04-15T12:41:24.541Z,20.72
2018-04-15T12:42:24.567Z,20.69
2018-04-15T12:43:24.596Z,20.64
2018-04-15T12:44:24.780Z,20.53
2018-04-15T12:45:24.712Z,20.56
2018-04-15T12:46:24.765Z,20.56
2018-04-15T12:47:24.826Z,20.66
2018-04-15T12:48:24.835Z,20.68
2018-04-15T12:49:24.998Z,20.66
2018-04-15T12:50:24.939Z,20.87
2018-04-15T12:52:25.054Z,20.80
2018-04-15T12:54:25.207Z,21.02
2018-04-15T12:55:25.163Z,21.16
2018-04-15T12:56:25.243Z,21.02
2018-04-15T12:57:25.284Z,20.98
2018-04-15T12:58:25.294Z,21.04
2018-04-15T12:59:25.359Z,21.16
2018-04-15T13:00:25.413Z,21.13
2018-04-15T13:01:25.473Z,21.17
2018-04-15T13:02:25.504Z,21.24
2018-04-15T13:03:25.552Z,21.09
2018-04-15T13:04:25.836Z,21.11
2018-04-15T13:05:25.642Z,21.23
2018-04-15T13:06:25.688Z,21.36
2018-04-15T13:07:25.734Z,21.35
2018-04-15T13:08:25.805Z,21.36
2018-04-15T13:09:25.932Z,21.46
2018-04-15T13:10:25.882Z,21.56
2018-04-15T13:11:25.987Z,21.72
2018-04-15T13:12:26.014Z,21.78
2018-04-15T13:13:26.048Z,21.94